Terminal Aerodrome Forecast
Issued by NWS

Home | Current Version | Previous Version | Text Only | Print | Product List | Glossary On
Versions: 1 2 3 4 5 6 7 8 9 10 11 12 13 14
000
FTUS42 KTBW 211100 AAA
TAFRSW
TAF AMD
KRSW 211153Z 2112/2212 04008KT P6SM BKN080
      TEMPO 2112/2114 -RA BKN035
     FM211400 04012G22KT P6SM SCT050 BKN080
     FM212000 06013KT P6SM SCT040 BKN070
     FM220300 06009KT P6SM SCT030 BKN045=

USA.gov is the U.S. government's official web portal to all federal, state and local government web resources and services.